sensor_id;sensor_type;location;lat;lon;timestamp;P1;durP1;ratioP1;P2;durP2;ratioP2
30048;SDS011;16879;50.852;15.602;2023-03-23T00:00:08;15.50;;;8.68;;
30048;SDS011;16879;50.852;15.602;2023-03-23T00:02:34;12.38;;;6.50;;
30048;SDS011;16879;50.852;15.602;2023-03-23T00:05:03;10.40;;;5.82;;
30048;SDS011;16879;50.852;15.602;2023-03-23T00:07:29;10.23;;;5.25;;
30048;SDS011;16879;50.852;15.602;2023-03-23T00:09:57;9.55;;;5.18;;
30048;SDS011;16879;50.852;15.602;2023-03-23T00:12:28;9.35;;;6.22;;
30048;SDS011;16879;50.852;15.602;2023-03-23T00:15:01;13.57;;;6.70;;
30048;SDS011;16879;50.852;15.602;2023-03-23T00:17:28;14.18;;;7.40;;
30048;SDS011;16879;50.852;15.602;2023-03-23T00:19:55;15.10;;;9.40;;
30048;SDS011;16879;50.852;15.602;2023-03-23T00:22:21;20.13;;;10.63;;
30048;SDS011;16879;50.852;15.602;2023-03-23T00:24:50;15.95;;;9.13;;
30048;SDS011;16879;50.852;15.602;2023-03-23T00:27:16;13.27;;;8.15;;
30048;SDS011;16879;50.852;15.602;2023-03-23T00:29:43;12.02;;;6.97;;
30048;SDS011;16879;50.852;15.602;2023-03-23T00:32:10;10.82;;;6.68;;
30048;SDS011;16879;50.852;15.602;2023-03-23T00:34:39;11.13;;;7.00;;
30048;SDS011;16879;50.852;15.602;2023-03-23T00:37:08;14.55;;;6.20;;
30048;SDS011;16879;50.852;15.602;2023-03-23T00:39:34;8.10;;;5.20;;
30048;SDS011;16879;50.852;15.602;2023-03-23T00:42:03;13.40;;;6.47;;
30048;SDS011;16879;50.852;15.602;2023-03-23T00:44:30;11.90;;;6.22;;
30048;SDS011;16879;50.852;15.602;2023-03-23T00:47:00;9.73;;;5.72;;
30048;SDS011;16879;50.852;15.602;2023-03-23T00:49:26;7.93;;;4.32;;
30048;SDS011;16879;50.852;15.602;2023-03-23T00:51:53;7.97;;;4.85;;
30048;SDS011;16879;50.852;15.602;2023-03-23T00:54:20;10.35;;;4.47;;
30048;SDS011;16879;50.852;15.602;2023-03-23T00:56:46;10.13;;;5.30;;
30048;SDS011;16879;50.852;15.602;2023-03-23T00:59:13;10.57;;;4.95;;
30048;SDS011;16879;50.852;15.602;2023-03-23T01:01:39;9.38;;;4.72;;
30048;SDS011;16879;50.852;15.602;2023-03-23T01:04:05;8.43;;;4.63;;
30048;SDS011;16879;50.852;15.602;2023-03-23T01:06:33;8.77;;;4.72;;
30048;SDS011;16879;50.852;15.602;2023-03-23T01:09:00;9.25;;;4.80;;
30048;SDS011;16879;50.852;15.602;2023-03-23T01:11:28;9.73;;;5.05;;
30048;SDS011;16879;50.852;15.602;2023-03-23T01:13:54;7.28;;;4.53;;
30048;SDS011;16879;50.852;15.602;2023-03-23T01:16:21;7.85;;;4.38;;
30048;SDS011;16879;50.852;15.602;2023-03-23T01:18:47;7.90;;;4.25;;
30048;SDS011;16879;50.852;15.602;2023-03-23T01:21:14;7.35;;;4.30;;
30048;SDS011;16879;50.852;15.602;2023-03-23T01:23:42;8.65;;;5.78;;
30048;SDS011;16879;50.852;15.602;2023-03-23T01:26:10;12.50;;;6.03;;
30048;SDS011;16879;50.852;15.602;2023-03-23T01:28:38;11.68;;;5.53;;
30048;SDS011;16879;50.852;15.602;2023-03-23T01:31:09;8.07;;;5.32;;
30048;SDS011;16879;50.852;15.602;2023-03-23T01:33:37;12.70;;;6.70;;
30048;SDS011;16879;50.852;15.602;2023-03-23T01:36:05;9.13;;;5.78;;
30048;SDS011;16879;50.852;15.602;2023-03-23T01:38:32;13.73;;;6.40;;
30048;SDS011;16879;50.852;15.602;2023-03-23T01:40:59;12.07;;;6.75;;
30048;SDS011;16879;50.852;15.602;2023-03-23T01:43:26;14.20;;;8.15;;
30048;SDS011;16879;50.852;15.602;2023-03-23T01:45:52;15.43;;;9.70;;
30048;SDS011;16879;50.852;15.602;2023-03-23T01:48:28;25.45;;;14.48;;
30048;SDS011;16879;50.852;15.602;2023-03-23T01:50:59;22.05;;;11.65;;
30048;SDS011;16879;50.852;15.602;2023-03-23T01:53:30;20.58;;;11.88;;
30048;SDS011;16879;50.852;15.602;2023-03-23T01:56:03;19.33;;;10.10;;
30048;SDS011;16879;50.852;15.602;2023-03-23T01:58:30;18.90;;;11.48;;
30048;SDS011;16879;50.852;15.602;2023-03-23T02:01:00;19.10;;;11.18;;
30048;SDS011;16879;50.852;15.602;2023-03-23T02:03:28;16.67;;;9.05;;
30048;SDS011;16879;50.852;15.602;2023-03-23T02:05:56;17.67;;;9.55;;
30048;SDS011;16879;50.852;15.602;2023-03-23T02:08:26;15.75;;;9.90;;
30048;SDS011;16879;50.852;15.602;2023-03-23T02:10:53;11.77;;;6.28;;
30048;SDS011;16879;50.852;15.602;2023-03-23T02:13:20;16.20;;;10.02;;
30048;SDS011;16879;50.852;15.602;2023-03-23T02:18:49;15.10;;;7.38;;
30048;SDS011;16879;50.852;15.602;2023-03-23T02:21:20;13.07;;;6.65;;
30048;SDS011;16879;50.852;15.602;2023-03-23T02:24:37;10.60;;;5.25;;
30048;SDS011;16879;50.852;15.602;2023-03-23T02:26:59;8.38;;;5.40;;
30048;SDS011;16879;50.852;15.602;2023-03-23T02:32:00;9.90;;;4.07;;
30048;SDS011;16879;50.852;15.602;2023-03-23T02:34:38;7.20;;;4.25;;
30048;SDS011;16879;50.852;15.602;2023-03-23T02:37:09;10.00;;;4.80;;
30048;SDS011;16879;50.852;15.602;2023-03-23T02:42:06;5.85;;;3.75;;
30048;SDS011;16879;50.852;15.602;2023-03-23T02:44:34;5.72;;;3.65;;
30048;SDS011;16879;50.852;15.602;2023-03-23T02:47:03;5.45;;;3.10;;
30048;SDS011;16879;50.852;15.602;2023-03-23T02:49:31;7.03;;;4.78;;
30048;SDS011;16879;50.852;15.602;2023-03-23T02:51:58;6.22;;;3.50;;
30048;SDS011;16879;50.852;15.602;2023-03-23T02:54:25;4.85;;;2.92;;
30048;SDS011;16879;50.852;15.602;2023-03-23T02:56:52;5.20;;;2.63;;
30048;SDS011;16879;50.852;15.602;2023-03-23T02:59:20;3.38;;;2.33;;
30048;SDS011;16879;50.852;15.602;2023-03-23T03:01:50;3.72;;;2.15;;
30048;SDS011;16879;50.852;15.602;2023-03-23T03:04:18;6.78;;;3.55;;
30048;SDS011;16879;50.852;15.602;2023-03-23T03:10:23;5.50;;;2.47;;
30048;SDS011;16879;50.852;15.602;2023-03-23T03:15:02;4.07;;;2.40;;
30048;SDS011;16879;50.852;15.602;2023-03-23T03:17:32;3.05;;;2.13;;
30048;SDS011;16879;50.852;15.602;2023-03-23T03:20:02;3.70;;;2.17;;
30048;SDS011;16879;50.852;15.602;2023-03-23T03:22:35;3.55;;;2.10;;
30048;SDS011;16879;50.852;15.602;2023-03-23T03:25:04;2.88;;;1.63;;
30048;SDS011;16879;50.852;15.602;2023-03-23T03:27:31;2.83;;;1.80;;
30048;SDS011;16879;50.852;15.602;2023-03-23T03:29:58;1.88;;;1.73;;
30048;SDS011;16879;50.852;15.602;2023-03-23T03:32:29;4.65;;;2.00;;
30048;SDS011;16879;50.852;15.602;2023-03-23T03:34:58;3.67;;;2.42;;
30048;SDS011;16879;50.852;15.602;2023-03-23T03:37:24;4.88;;;2.67;;
30048;SDS011;16879;50.852;15.602;2023-03-23T03:39:51;6.05;;;2.55;;
30048;SDS011;16879;50.852;15.602;2023-03-23T03:42:17;4.78;;;2.47;;
30048;SDS011;16879;50.852;15.602;2023-03-23T03:44:43;4.70;;;2.45;;
30048;SDS011;16879;50.852;15.602;2023-03-23T03:47:10;4.70;;;2.90;;
30048;SDS011;16879;50.852;15.602;2023-03-23T03:49:36;3.88;;;2.60;;
30048;SDS011;16879;50.852;15.602;2023-03-23T03:52:02;4.40;;;3.10;;
30048;SDS011;16879;50.852;15.602;2023-03-23T03:54:28;8.80;;;4.60;;
30048;SDS011;16879;50.852;15.602;2023-03-23T03:56:54;18.25;;;9.07;;
30048;SDS011;16879;50.852;15.602;2023-03-23T03:59:22;10.00;;;5.95;;
30048;SDS011;16879;50.852;15.602;2023-03-23T04:01:50;10.60;;;5.45;;
30048;SDS011;16879;50.852;15.602;2023-03-23T04:04:19;13.15;;;6.72;;
30048;SDS011;16879;50.852;15.602;2023-03-23T04:06:47;17.55;;;11.18;;
30048;SDS011;16879;50.852;15.602;2023-03-23T04:09:14;26.60;;;15.05;;
30048;SDS011;16879;50.852;15.602;2023-03-23T04:11:40;20.73;;;11.48;;
30048;SDS011;16879;50.852;15.602;2023-03-23T04:14:06;15.52;;;6.93;;
30048;SDS011;16879;50.852;15.602;2023-03-23T04:16:32;15.75;;;8.70;;
30048;SDS011;16879;50.852;15.602;2023-03-23T04:19:01;16.15;;;8.98;;
30048;SDS011;16879;50.852;15.602;2023-03-23T04:21:28;22.63;;;11.00;;
30048;SDS011;16879;50.852;15.602;2023-03-23T04:23:57;12.52;;;8.05;;
30048;SDS011;16879;50.852;15.602;2023-03-23T04:26:25;9.13;;;5.45;;
30048;SDS011;16879;50.852;15.602;2023-03-23T04:28:51;8.35;;;4.40;;
30048;SDS011;16879;50.852;15.602;2023-03-23T04:31:17;7.40;;;3.63;;
30048;SDS011;16879;50.852;15.602;2023-03-23T04:33:43;6.22;;;4.03;;
30048;SDS011;16879;50.852;15.602;2023-03-23T04:36:11;4.35;;;2.97;;
30048;SDS011;16879;50.852;15.602;2023-03-23T04:38:41;5.70;;;3.75;;
30048;SDS011;16879;50.852;15.602;2023-03-23T04:41:07;7.63;;;3.08;;
30048;SDS011;16879;50.852;15.602;2023-03-23T04:43:34;6.38;;;3.08;;
30048;SDS011;16879;50.852;15.602;2023-03-23T04:46:07;4.35;;;2.53;;
30048;SDS011;16879;50.852;15.602;2023-03-23T04:48:36;5.13;;;3.38;;
30048;SDS011;16879;50.852;15.602;2023-03-23T04:51:04;3.25;;;2.95;;
30048;SDS011;16879;50.852;15.602;2023-03-23T04:53:31;4.40;;;2.67;;
30048;SDS011;16879;50.852;15.602;2023-03-23T04:55:57;2.70;;;1.95;;
30048;SDS011;16879;50.852;15.602;2023-03-23T04:58:26;3.97;;;2.55;;
30048;SDS011;16879;50.852;15.602;2023-03-23T05:00:54;2.92;;;1.92;;
30048;SDS011;16879;50.852;15.602;2023-03-23T05:03:21;3.13;;;1.70;;
30048;SDS011;16879;50.852;15.602;2023-03-23T05:05:47;3.83;;;2.10;;
30048;SDS011;16879;50.852;15.602;2023-03-23T05:08:17;3.88;;;2.22;;
30048;SDS011;16879;50.852;15.602;2023-03-23T05:10:49;2.30;;;1.80;;
30048;SDS011;16879;50.852;15.602;2023-03-23T05:13:16;3.13;;;1.58;;
30048;SDS011;16879;50.852;15.602;2023-03-23T05:15:43;2.60;;;1.77;;
30048;SDS011;16879;50.852;15.602;2023-03-23T05:18:09;1.95;;;1.67;;
30048;SDS011;16879;50.852;15.602;2023-03-23T05:20:36;4.47;;;2.08;;
30048;SDS011;16879;50.852;15.602;2023-03-23T05:23:02;5.45;;;1.77;;
30048;SDS011;16879;50.852;15.602;2023-03-23T05:25:29;6.15;;;3.72;;
30048;SDS011;16879;50.852;15.602;2023-03-23T05:27:57;3.03;;;2.15;;
30048;SDS011;16879;50.852;15.602;2023-03-23T05:30:25;3.50;;;2.13;;
30048;SDS011;16879;50.852;15.602;2023-03-23T05:32:53;3.13;;;2.58;;
30048;SDS011;16879;50.852;15.602;2023-03-23T05:35:19;3.88;;;2.05;;
30048;SDS011;16879;50.852;15.602;2023-03-23T05:37:49;5.70;;;2.60;;
30048;SDS011;16879;50.852;15.602;2023-03-23T05:40:19;3.20;;;2.42;;
30048;SDS011;16879;50.852;15.602;2023-03-23T05:42:48;6.00;;;2.42;;
30048;SDS011;16879;50.852;15.602;2023-03-23T05:45:15;5.03;;;2.25;;
30048;SDS011;16879;50.852;15.602;2023-03-23T05:47:42;6.00;;;2.30;;
30048;SDS011;16879;50.852;15.602;2023-03-23T05:50:11;5.47;;;2.75;;
30048;SDS011;16879;50.852;15.602;2023-03-23T05:52:41;8.95;;;2.45;;
30048;SDS011;16879;50.852;15.602;2023-03-23T05:55:07;6.72;;;2.55;;
30048;SDS011;16879;50.852;15.602;2023-03-23T05:57:34;5.80;;;2.67;;
30048;SDS011;16879;50.852;15.602;2023-03-23T06:00:00;6.30;;;2.08;;
30048;SDS011;16879;50.852;15.602;2023-03-23T06:02:39;6.78;;;2.42;;
30048;SDS011;16879;50.852;15.602;2023-03-23T06:05:09;5.75;;;2.20;;
30048;SDS011;16879;50.852;15.602;2023-03-23T06:07:35;6.40;;;2.95;;
30048;SDS011;16879;50.852;15.602;2023-03-23T06:10:03;3.38;;;2.20;;
30048;SDS011;16879;50.852;15.602;2023-03-23T06:12:29;10.00;;;4.85;;
30048;SDS011;16879;50.852;15.602;2023-03-23T06:14:56;7.78;;;3.03;;
30048;SDS011;16879;50.852;15.602;2023-03-23T06:17:23;17.35;;;5.38;;
30048;SDS011;16879;50.852;15.602;2023-03-23T06:19:49;12.13;;;5.50;;
30048;SDS011;16879;50.852;15.602;2023-03-23T06:22:16;10.05;;;4.72;;
30048;SDS011;16879;50.852;15.602;2023-03-23T06:24:43;9.52;;;4.63;;
30048;SDS011;16879;50.852;15.602;2023-03-23T06:27:09;8.57;;;4.18;;
30048;SDS011;16879;50.852;15.602;2023-03-23T06:29:36;8.70;;;4.35;;
30048;SDS011;16879;50.852;15.602;2023-03-23T06:32:03;5.45;;;3.47;;
30048;SDS011;16879;50.852;15.602;2023-03-23T06:34:29;7.47;;;3.60;;
30048;SDS011;16879;50.852;15.602;2023-03-23T06:36:57;7.90;;;3.72;;
30048;SDS011;16879;50.852;15.602;2023-03-23T06:39:24;6.30;;;4.25;;
30048;SDS011;16879;50.852;15.602;2023-03-23T06:41:50;7.70;;;4.22;;
30048;SDS011;16879;50.852;15.602;2023-03-23T06:44:16;7.38;;;4.45;;
30048;SDS011;16879;50.852;15.602;2023-03-23T06:46:43;6.35;;;4.63;;
30048;SDS011;16879;50.852;15.602;2023-03-23T06:49:09;8.63;;;4.63;;
30048;SDS011;16879;50.852;15.602;2023-03-23T06:51:36;5.93;;;4.50;;
30048;SDS011;16879;50.852;15.602;2023-03-23T06:54:03;7.18;;;4.32;;
30048;SDS011;16879;50.852;15.602;2023-03-23T06:56:29;10.70;;;4.35;;
30048;SDS011;16879;50.852;15.602;2023-03-23T06:58:56;4.93;;;3.72;;
30048;SDS011;16879;50.852;15.602;2023-03-23T07:01:22;7.82;;;4.40;;
30048;SDS011;16879;50.852;15.602;2023-03-23T07:03:48;5.57;;;3.83;;
30048;SDS011;16879;50.852;15.602;2023-03-23T07:06:15;10.77;;;4.03;;
30048;SDS011;16879;50.852;15.602;2023-03-23T07:08:41;6.25;;;4.03;;
30048;SDS011;16879;50.852;15.602;2023-03-23T07:11:08;7.13;;;4.65;;
30048;SDS011;16879;50.852;15.602;2023-03-23T07:13:35;4.43;;;3.40;;
30048;SDS011;16879;50.852;15.602;2023-03-23T07:16:04;9.88;;;4.18;;
30048;SDS011;16879;50.852;15.602;2023-03-23T07:18:31;5.03;;;3.50;;
30048;SDS011;16879;50.852;15.602;2023-03-23T07:20:57;5.43;;;4.20;;
30048;SDS011;16879;50.852;15.602;2023-03-23T07:23:24;6.60;;;4.03;;
30048;SDS011;16879;50.852;15.602;2023-03-23T07:25:50;5.32;;;3.60;;
30048;SDS011;16879;50.852;15.602;2023-03-23T07:28:17;7.43;;;4.43;;
30048;SDS011;16879;50.852;15.602;2023-03-23T07:30:43;4.60;;;3.15;;
30048;SDS011;16879;50.852;15.602;2023-03-23T07:33:10;6.50;;;2.50;;
30048;SDS011;16879;50.852;15.602;2023-03-23T07:35:36;3.55;;;2.63;;
30048;SDS011;16879;50.852;15.602;2023-03-23T07:38:03;6.40;;;2.83;;
30048;SDS011;16879;50.852;15.602;2023-03-23T07:40:30;4.40;;;3.20;;
30048;SDS011;16879;50.852;15.602;2023-03-23T07:43:02;2.78;;;2.55;;
30048;SDS011;16879;50.852;15.602;2023-03-23T07:45:29;4.93;;;2.55;;
30048;SDS011;16879;50.852;15.602;2023-03-23T07:47:56;4.75;;;3.15;;
30048;SDS011;16879;50.852;15.602;2023-03-23T07:50:22;2.58;;;2.15;;
30048;SDS011;16879;50.852;15.602;2023-03-23T07:52:58;4.50;;;3.35;;
30048;SDS011;16879;50.852;15.602;2023-03-23T07:55:25;4.10;;;3.05;;
30048;SDS011;16879;50.852;15.602;2023-03-23T07:57:52;6.07;;;2.58;;
30048;SDS011;16879;50.852;15.602;2023-03-23T08:00:19;13.45;;;3.30;;
30048;SDS011;16879;50.852;15.602;2023-03-23T08:02:49;4.65;;;2.83;;
30048;SDS011;16879;50.852;15.602;2023-03-23T08:05:15;5.10;;;2.80;;
30048;SDS011;16879;50.852;15.602;2023-03-23T08:07:42;2.67;;;2.13;;
30048;SDS011;16879;50.852;15.602;2023-03-23T08:10:10;4.38;;;3.05;;
30048;SDS011;16879;50.852;15.602;2023-03-23T08:12:37;4.05;;;2.58;;
30048;SDS011;16879;50.852;15.602;2023-03-23T08:15:04;3.60;;;2.53;;
30048;SDS011;16879;50.852;15.602;2023-03-23T08:17:31;6.35;;;2.22;;
30048;SDS011;16879;50.852;15.602;2023-03-23T08:19:58;3.50;;;2.63;;
30048;SDS011;16879;50.852;15.602;2023-03-23T08:22:24;5.25;;;2.65;;
30048;SDS011;16879;50.852;15.602;2023-03-23T08:24:51;5.22;;;2.88;;
30048;SDS011;16879;50.852;15.602;2023-03-23T08:27:17;6.50;;;3.90;;
30048;SDS011;16879;50.852;15.602;2023-03-23T08:29:44;2.92;;;2.63;;
30048;SDS011;16879;50.852;15.602;2023-03-23T08:32:11;6.85;;;2.88;;
30048;SDS011;16879;50.852;15.602;2023-03-23T08:34:37;2.70;;;2.50;;
30048;SDS011;16879;50.852;15.602;2023-03-23T08:37:04;3.38;;;2.40;;
30048;SDS011;16879;50.852;15.602;2023-03-23T08:39:31;2.83;;;2.28;;
30048;SDS011;16879;50.852;15.602;2023-03-23T08:41:58;3.95;;;2.53;;
30048;SDS011;16879;50.852;15.602;2023-03-23T08:44:25;3.90;;;2.28;;
30048;SDS011;16879;50.852;15.602;2023-03-23T08:46:51;3.67;;;2.90;;
30048;SDS011;16879;50.852;15.602;2023-03-23T08:49:22;4.80;;;2.58;;
30048;SDS011;16879;50.852;15.602;2023-03-23T08:51:48;4.38;;;2.30;;
30048;SDS011;16879;50.852;15.602;2023-03-23T08:54:15;4.25;;;2.67;;
30048;SDS011;16879;50.852;15.602;2023-03-23T08:56:42;4.38;;;2.60;;
30048;SDS011;16879;50.852;15.602;2023-03-23T08:59:08;7.80;;;2.88;;
30048;SDS011;16879;50.852;15.602;2023-03-23T09:01:35;4.82;;;2.33;;
30048;SDS011;16879;50.852;15.602;2023-03-23T09:04:01;5.25;;;2.28;;
30048;SDS011;16879;50.852;15.602;2023-03-23T09:06:29;4.28;;;2.47;;
30048;SDS011;16879;50.852;15.602;2023-03-23T09:08:55;5.05;;;2.72;;
30048;SDS011;16879;50.852;15.602;2023-03-23T09:11:22;3.38;;;2.78;;
30048;SDS011;16879;50.852;15.602;2023-03-23T09:13:48;5.05;;;3.35;;
30048;SDS011;16879;50.852;15.602;2023-03-23T09:16:14;3.50;;;2.70;;
30048;SDS011;16879;50.852;15.602;2023-03-23T09:18:40;3.90;;;2.90;;
30048;SDS011;16879;50.852;15.602;2023-03-23T09:21:06;6.25;;;3.15;;
30048;SDS011;16879;50.852;15.602;2023-03-23T09:23:34;7.18;;;3.35;;
30048;SDS011;16879;50.852;15.602;2023-03-23T09:26:01;7.90;;;3.30;;
30048;SDS011;16879;50.852;15.602;2023-03-23T09:28:27;4.05;;;2.70;;
30048;SDS011;16879;50.852;15.602;2023-03-23T09:30:55;3.83;;;2.85;;
30048;SDS011;16879;50.852;15.602;2023-03-23T09:33:24;5.70;;;3.13;;
30048;SDS011;16879;50.852;15.602;2023-03-23T09:35:51;3.60;;;2.60;;
30048;SDS011;16879;50.852;15.602;2023-03-23T09:38:17;3.53;;;2.40;;
30048;SDS011;16879;50.852;15.602;2023-03-23T09:45:55;3.05;;;2.45;;
30048;SDS011;16879;50.852;15.602;2023-03-23T09:48:36;4.57;;;2.47;;
30048;SDS011;16879;50.852;15.602;2023-03-23T09:51:07;5.30;;;2.95;;
30048;SDS011;16879;50.852;15.602;2023-03-23T09:53:58;5.63;;;2.88;;
30048;SDS011;16879;50.852;15.602;2023-03-23T09:56:28;12.82;;;7.72;;
30048;SDS011;16879;50.852;15.602;2023-03-23T09:59:12;5.65;;;3.55;;
30048;SDS011;16879;50.852;15.602;2023-03-23T10:01:45;6.30;;;3.80;;
30048;SDS011;16879;50.852;15.602;2023-03-23T10:07:45;5.18;;;2.97;;
30048;SDS011;16879;50.852;15.602;2023-03-23T10:09:53;5.32;;;2.80;;
30048;SDS011;16879;50.852;15.602;2023-03-23T10:12:32;5.88;;;2.92;;
30048;SDS011;16879;50.852;15.602;2023-03-23T10:17:36;4.00;;;2.80;;
30048;SDS011;16879;50.852;15.602;2023-03-23T10:22:54;8.63;;;4.18;;
30048;SDS011;16879;50.852;15.602;2023-03-23T10:25:23;5.85;;;2.80;;
30048;SDS011;16879;50.852;15.602;2023-03-23T10:27:52;4.53;;;3.60;;
30048;SDS011;16879;50.852;15.602;2023-03-23T10:30:24;6.10;;;3.13;;
30048;SDS011;16879;50.852;15.602;2023-03-23T10:35:45;4.82;;;3.33;;
30048;SDS011;16879;50.852;15.602;2023-03-23T10:38:15;7.78;;;3.20;;
30048;SDS011;16879;50.852;15.602;2023-03-23T10:40:50;8.15;;;3.13;;
30048;SDS011;16879;50.852;15.602;2023-03-23T10:43:22;5.63;;;3.47;;
30048;SDS011;16879;50.852;15.602;2023-03-23T10:45:50;7.25;;;3.80;;
30048;SDS011;16879;50.852;15.602;2023-03-23T10:48:24;8.85;;;3.80;;
30048;SDS011;16879;50.852;15.602;2023-03-23T10:50:56;6.30;;;3.50;;
30048;SDS011;16879;50.852;15.602;2023-03-23T10:55:57;3.33;;;3.03;;
30048;SDS011;16879;50.852;15.602;2023-03-23T10:58:27;8.40;;;4.20;;
30048;SDS011;16879;50.852;15.602;2023-03-23T11:00:57;5.50;;;2.67;;
30048;SDS011;16879;50.852;15.602;2023-03-23T11:03:27;5.13;;;3.45;;
30048;SDS011;16879;50.852;15.602;2023-03-23T11:06:05;4.45;;;2.92;;
30048;SDS011;16879;50.852;15.602;2023-03-23T11:08:34;6.35;;;3.70;;
30048;SDS011;16879;50.852;15.602;2023-03-23T11:11:15;4.43;;;3.55;;
30048;SDS011;16879;50.852;15.602;2023-03-23T11:13:42;4.15;;;3.38;;
30048;SDS011;16879;50.852;15.602;2023-03-23T11:16:10;6.13;;;3.47;;
30048;SDS011;16879;50.852;15.602;2023-03-23T11:18:37;6.10;;;3.30;;
30048;SDS011;16879;50.852;15.602;2023-03-23T11:21:08;6.68;;;4.18;;
30048;SDS011;16879;50.852;15.602;2023-03-23T11:23:36;6.22;;;4.28;;
30048;SDS011;16879;50.852;15.602;2023-03-23T11:28:37;5.13;;;3.60;;
30048;SDS011;16879;50.852;15.602;2023-03-23T11:31:05;6.78;;;3.70;;
30048;SDS011;16879;50.852;15.602;2023-03-23T11:33:39;7.85;;;4.50;;
30048;SDS011;16879;50.852;15.602;2023-03-23T11:36:14;4.47;;;3.65;;
30048;SDS011;16879;50.852;15.602;2023-03-23T11:38:40;4.95;;;3.72;;
30048;SDS011;16879;50.852;15.602;2023-03-23T11:41:10;7.13;;;4.18;;
30048;SDS011;16879;50.852;15.602;2023-03-23T11:43:40;4.82;;;4.28;;
30048;SDS011;16879;50.852;15.602;2023-03-23T11:46:16;4.80;;;3.67;;
30048;SDS011;16879;50.852;15.602;2023-03-23T11:56:25;10.60;;;4.03;;
30048;SDS011;16879;50.852;15.602;2023-03-23T11:59:17;5.20;;;2.97;;
30048;SDS011;16879;50.852;15.602;2023-03-23T12:01:56;6.30;;;3.45;;
30048;SDS011;16879;50.852;15.602;2023-03-23T12:07:32;4.45;;;3.03;;
30048;SDS011;16879;50.852;15.602;2023-03-23T12:10:10;8.30;;;3.47;;
30048;SDS011;16879;50.852;15.602;2023-03-23T12:13:05;3.63;;;2.97;;
30048;SDS011;16879;50.852;15.602;2023-03-23T12:29:20;6.80;;;2.72;;
30048;SDS011;16879;50.852;15.602;2023-03-23T12:31:39;5.07;;;2.30;;
30048;SDS011;16879;50.852;15.602;2023-03-23T12:34:35;3.72;;;2.65;;
30048;SDS011;16879;50.852;15.602;2023-03-23T12:48:07;4.07;;;2.53;;
30048;SDS011;16879;50.852;15.602;2023-03-23T12:50:44;6.00;;;2.75;;
30048;SDS011;16879;50.852;15.602;2023-03-23T12:56:22;4.13;;;2.47;;
30048;SDS011;16879;50.852;15.602;2023-03-23T12:58:59;4.03;;;2.53;;
30048;SDS011;16879;50.852;15.602;2023-03-23T13:02:00;3.13;;;2.20;;
30048;SDS011;16879;50.852;15.602;2023-03-23T13:04:50;5.97;;;2.72;;
30048;SDS011;16879;50.852;15.602;2023-03-23T13:07:26;4.25;;;2.50;;
30048;SDS011;16879;50.852;15.602;2023-03-23T13:12:20;4.93;;;2.40;;
30048;SDS011;16879;50.852;15.602;2023-03-23T13:14:55;4.43;;;3.53;;
30048;SDS011;16879;50.852;15.602;2023-03-23T13:25:13;3.47;;;2.20;;
30048;SDS011;16879;50.852;15.602;2023-03-23T13:27:44;2.85;;;1.95;;
30048;SDS011;16879;50.852;15.602;2023-03-23T13:30:22;3.58;;;1.90;;
30048;SDS011;16879;50.852;15.602;2023-03-23T13:32:49;5.32;;;1.73;;
30048;SDS011;16879;50.852;15.602;2023-03-23T13:35:16;2.03;;;1.65;;
30048;SDS011;16879;50.852;15.602;2023-03-23T13:37:49;3.20;;;2.33;;
30048;SDS011;16879;50.852;15.602;2023-03-23T13:40:28;3.45;;;2.60;;
30048;SDS011;16879;50.852;15.602;2023-03-23T13:42:55;3.92;;;2.13;;
30048;SDS011;16879;50.852;15.602;2023-03-23T13:48:03;4.30;;;3.00;;
30048;SDS011;16879;50.852;15.602;2023-03-23T13:50:52;5.00;;;2.40;;
30048;SDS011;16879;50.852;15.602;2023-03-23T13:53:23;7.18;;;2.63;;
30048;SDS011;16879;50.852;15.602;2023-03-23T13:55:50;3.97;;;2.42;;
30048;SDS011;16879;50.852;15.602;2023-03-23T13:58:28;4.00;;;2.30;;
30048;SDS011;16879;50.852;15.602;2023-03-23T14:01:16;2.55;;;2.00;;
30048;SDS011;16879;50.852;15.602;2023-03-23T14:03:43;3.22;;;2.75;;
30048;SDS011;16879;50.852;15.602;2023-03-23T14:06:15;2.63;;;2.00;;
30048;SDS011;16879;50.852;15.602;2023-03-23T14:08:43;2.20;;;2.00;;
30048;SDS011;16879;50.852;15.602;2023-03-23T14:13:39;3.75;;;2.33;;
30048;SDS011;16879;50.852;15.602;2023-03-23T14:16:25;2.45;;;2.00;;
30048;SDS011;16879;50.852;15.602;2023-03-23T14:19:24;3.30;;;2.33;;
30048;SDS011;16879;50.852;15.602;2023-03-23T14:21:54;4.40;;;2.83;;
30048;SDS011;16879;50.852;15.602;2023-03-23T14:24:22;4.00;;;3.17;;
30048;SDS011;16879;50.852;15.602;2023-03-23T14:26:49;4.10;;;2.85;;
30048;SDS011;16879;50.852;15.602;2023-03-23T14:29:19;4.38;;;2.83;;
30048;SDS011;16879;50.852;15.602;2023-03-23T14:31:54;4.53;;;2.55;;
30048;SDS011;16879;50.852;15.602;2023-03-23T14:34:22;3.95;;;2.95;;
30048;SDS011;16879;50.852;15.602;2023-03-23T14:36:51;4.88;;;2.70;;
30048;SDS011;16879;50.852;15.602;2023-03-23T14:39:22;7.03;;;3.33;;
30048;SDS011;16879;50.852;15.602;2023-03-23T14:41:49;4.40;;;2.85;;
30048;SDS011;16879;50.852;15.602;2023-03-23T14:44:17;3.80;;;2.60;;
30048;SDS011;16879;50.852;15.602;2023-03-23T14:46:44;2.75;;;2.20;;
30048;SDS011;16879;50.852;15.602;2023-03-23T14:49:12;3.72;;;2.08;;
30048;SDS011;16879;50.852;15.602;2023-03-23T14:51:49;3.83;;;2.30;;
30048;SDS011;16879;50.852;15.602;2023-03-23T14:54:18;3.20;;;2.70;;
30048;SDS011;16879;50.852;15.602;2023-03-23T14:56:46;3.90;;;3.15;;
30048;SDS011;16879;50.852;15.602;2023-03-23T14:59:12;3.95;;;2.95;;
30048;SDS011;16879;50.852;15.602;2023-03-23T15:01:39;5.28;;;2.45;;
30048;SDS011;16879;50.852;15.602;2023-03-23T15:04:11;2.95;;;2.55;;
30048;SDS011;16879;50.852;15.602;2023-03-23T15:06:39;4.35;;;2.60;;
30048;SDS011;16879;50.852;15.602;2023-03-23T15:09:09;2.60;;;2.25;;
30048;SDS011;16879;50.852;15.602;2023-03-23T15:11:50;4.78;;;2.80;;
30048;SDS011;16879;50.852;15.602;2023-03-23T15:14:21;4.15;;;2.22;;
30048;SDS011;16879;50.852;15.602;2023-03-23T15:16:49;4.03;;;2.42;;
30048;SDS011;16879;50.852;15.602;2023-03-23T15:19:18;3.55;;;2.50;;
30048;SDS011;16879;50.852;15.602;2023-03-23T15:22:12;3.67;;;3.15;;
30048;SDS011;16879;50.852;15.602;2023-03-23T15:24:41;4.85;;;3.20;;
30048;SDS011;16879;50.852;15.602;2023-03-23T15:29:48;5.78;;;3.35;;
30048;SDS011;16879;50.852;15.602;2023-03-23T15:32:19;3.67;;;2.92;;
30048;SDS011;16879;50.852;15.602;2023-03-23T15:34:46;3.08;;;2.55;;
30048;SDS011;16879;50.852;15.602;2023-03-23T15:37:20;5.18;;;3.30;;
30048;SDS011;16879;50.852;15.602;2023-03-23T15:39:46;5.82;;;4.32;;
30048;SDS011;16879;50.852;15.602;2023-03-23T15:42:21;4.82;;;3.47;;
30048;SDS011;16879;50.852;15.602;2023-03-23T15:47:14;5.32;;;3.00;;
30048;SDS011;16879;50.852;15.602;2023-03-23T15:49:41;4.65;;;3.53;;
30048;SDS011;16879;50.852;15.602;2023-03-23T15:52:09;5.80;;;3.85;;
30048;SDS011;16879;50.852;15.602;2023-03-23T15:54:36;5.75;;;3.30;;
30048;SDS011;16879;50.852;15.602;2023-03-23T15:57:02;5.03;;;2.97;;
30048;SDS011;16879;50.852;15.602;2023-03-23T15:59:28;3.72;;;3.20;;
30048;SDS011;16879;50.852;15.602;2023-03-23T16:01:55;4.15;;;2.75;;
30048;SDS011;16879;50.852;15.602;2023-03-23T16:04:21;4.68;;;3.08;;
30048;SDS011;16879;50.852;15.602;2023-03-23T16:06:51;7.05;;;3.30;;
30048;SDS011;16879;50.852;15.602;2023-03-23T16:09:19;5.10;;;3.90;;
30048;SDS011;16879;50.852;15.602;2023-03-23T16:11:45;5.03;;;2.90;;
30048;SDS011;16879;50.852;15.602;2023-03-23T16:14:12;4.57;;;3.58;;
30048;SDS011;16879;50.852;15.602;2023-03-23T16:16:43;4.43;;;2.85;;